Time;durP1;ratioP1;P1;durP2;ratioP2;P2;SDS_P1;SDS_P2;PMS_P1;PMS_P2;Temp;Humidity;BMP_temperature;BMP_pressure;BME280_temperature;BME280_humidity;BME280_pressure;Samples;Min_cycle;Max_cycle;Signal;HPM_P1;HPM_P2
2024/01/02 00:00:44;;;;;;;1.35;0.65;;;;;;;-4.04;72.52;101773.81;5023616;28;20128;-73
2024/01/02 00:03:11;;;;;;;1.77;0.43;;;;;;;-4.09;72.00;101764.16;5027093;28;20046;-77
2024/01/02 00:05:38;;;;;;;0.80;0.57;;;;;;;-4.07;72.35;101773.66;5028280;28;20105;-77
2024/01/02 00:08:05;;;;;;;1.95;0.50;;;;;;;-4.06;72.30;101775.41;5029575;28;20152;-77
2024/01/02 00:10:32;;;;;;;0.70;0.40;;;;;;;-4.08;72.00;101766.75;5026493;28;20839;-78
2024/01/02 00:13:00;;;;;;;1.05;0.60;;;;;;;-4.06;72.40;101770.28;5029484;28;20077;-77
2024/01/02 00:15:27;;;;;;;1.55;0.60;;;;;;;-4.09;72.61;101777.78;5026866;28;20860;-77
2024/01/02 00:17:56;;;;;;;0.80;0.70;;;;;;;-4.11;72.89;101776.81;5029412;28;20136;-76
2024/01/02 00:20:23;;;;;;;1.25;0.60;;;;;;;-4.13;72.40;101773.34;5023177;28;20120;-77
2024/01/02 00:22:50;;;;;;;3.40;0.60;;;;;;;-4.15;72.72;101777.47;5026608;28;20515;-75
2024/01/02 00:25:17;;;;;;;1.58;0.73;;;;;;;-4.18;73.10;101769.66;5025549;28;20096;-75
2024/01/02 00:27:43;;;;;;;1.25;0.52;;;;;;;-4.21;72.95;101764.38;5016061;28;20504;-72
2024/01/02 00:30:12;;;;;;;1.52;0.65;;;;;;;-4.19;73.03;101767.88;5026343;28;20081;-73
2024/01/02 00:32:39;;;;;;;1.58;0.50;;;;;;;-4.20;73.16;101771.25;5025605;28;20531;-75
2024/01/02 00:35:08;;;;;;;1.20;0.60;;;;;;;-4.22;72.70;101771.13;5024157;28;20140;-76
2024/01/02 00:37:35;;;;;;;3.58;0.57;;;;;;;-4.24;73.00;101777.00;5025184;28;20045;-76
2024/01/02 00:40:02;;;;;;;2.47;0.50;;;;;;;-4.25;72.79;101775.22;5022086;28;20065;-75
2024/01/02 00:42:29;;;;;;;2.38;0.93;;;;;;;-4.28;73.01;101772.50;5023170;28;20050;-74
2024/01/02 00:44:56;;;;;;;0.80;0.50;;;;;;;-4.33;73.43;101763.69;5026311;28;20064;-75
2024/01/02 00:47:22;;;;;;;1.23;1.13;;;;;;;-4.33;74.06;101779.03;5024139;28;20092;-76
2024/01/02 00:49:49;;;;;;;1.50;0.68;;;;;;;-4.33;74.15;101784.16;5024514;28;20191;-75
2024/01/02 00:52:18;;;;;;;1.15;0.60;;;;;;;-4.35;73.79;101775.53;5026379;28;20618;-75
2024/01/02 00:54:45;;;;;;;1.40;0.60;;;;;;;-4.36;73.81;101769.53;5023925;28;20132;-76
2024/01/02 00:57:12;;;;;;;1.17;0.50;;;;;;;-4.34;73.71;101769.63;5024223;28;20103;-75
2024/01/02 00:59:39;;;;;;;2.88;0.40;;;;;;;-4.34;74.06;101767.94;5023025;28;20117;-75
2024/01/02 01:02:06;;;;;;;1.85;0.45;;;;;;;-4.35;73.89;101770.44;5024747;28;20111;-75
2024/01/02 01:04:33;;;;;;;2.17;0.32;;;;;;;-4.35;74.27;101772.97;5023564;28;20460;-75
2024/01/02 01:07:00;;;;;;;2.60;0.40;;;;;;;-4.37;74.42;101766.91;5024450;28;20099;-75
2024/01/02 01:09:28;;;;;;;2.15;0.40;;;;;;;-4.41;74.51;101776.97;5024815;28;20080;-75
2024/01/02 01:11:55;;;;;;;0.63;0.43;;;;;;;-4.42;74.18;101779.41;5024723;28;20449;-77
2024/01/02 01:14:22;;;;;;;1.27;0.40;;;;;;;-4.44;74.32;101773.38;5022905;28;20073;-82
2024/01/02 01:16:49;;;;;;;0.50;0.30;;;;;;;-4.45;73.90;101774.16;5026296;28;20076;-77
2024/01/02 01:19:16;;;;;;;2.38;0.57;;;;;;;-4.48;74.08;101769.75;5022609;28;20125;-77
2024/01/02 01:21:43;;;;;;;0.38;0.30;;;;;;;-4.48;73.82;101773.97;5027946;28;20073;-77
2024/01/02 01:24:10;;;;;;;0.95;0.60;;;;;;;-4.51;73.77;101776.38;5026588;28;20867;-77
2024/01/02 01:26:38;;;;;;;0.38;0.28;;;;;;;-4.55;74.37;101775.34;5024252;28;20069;-77
2024/01/02 01:29:05;;;;;;;0.88;0.50;;;;;;;-4.58;74.53;101772.63;5027197;28;20076;-77
2024/01/02 01:31:32;;;;;;;0.98;0.40;;;;;;;-4.58;74.74;101776.84;5027244;28;20038;-75
2024/01/02 01:33:59;;;;;;;2.20;0.30;;;;;;;-4.59;74.60;101770.84;5022827;28;20144;-74
2024/01/02 01:36:26;;;;;;;0.45;0.40;;;;;;;-4.59;74.51;101773.38;5023271;28;20049;-75
2024/01/02 01:38:53;;;;;;;0.60;0.40;;;;;;;-4.60;74.49;101765.66;5021136;28;20051;-75
2024/01/02 01:41:20;;;;;;;1.95;0.50;;;;;;;-4.63;74.41;101769.78;5024276;28;20133;-72
2024/01/02 01:43:48;;;;;;;1.20;0.50;;;;;;;-4.63;74.53;101774.03;5025638;28;20052;-74
2024/01/02 01:46:16;;;;;;;0.88;0.50;;;;;;;-4.65;74.58;101775.59;5024237;28;20076;-76
2024/01/02 01:48:44;;;;;;;0.70;0.43;;;;;;;-4.67;74.51;101774.63;5017316;28;20042;-74
2024/01/02 01:51:11;;;;;;;3.67;0.70;;;;;;;-4.70;74.27;101772.81;5019722;28;20041;-72
2024/01/02 01:53:38;;;;;;;0.55;0.28;;;;;;;-4.70;74.31;101779.56;5025282;28;20073;-76
2024/01/02 01:56:07;;;;;;;0.90;0.50;;;;;;;-4.72;74.08;101764.19;5022903;28;20072;-75
2024/01/02 01:58:34;;;;;;;5.32;0.50;;;;;;;-4.74;74.57;101773.44;5024096;28;20053;-74
2024/01/02 02:01:03;;;;;;;2.35;0.50;;;;;;;-4.74;73.99;101764.91;5022501;28;20128;-75
2024/01/02 02:03:31;;;;;;;1.60;0.35;;;;;;;-4.80;74.00;101744.13;5023479;28;20045;-75
2024/01/02 02:05:58;;;;;;;1.17;0.77;;;;;;;-4.75;74.19;101763.16;5024822;28;20132;-75
2024/01/02 02:08:25;;;;;;;2.00;0.30;;;;;;;-4.77;74.39;101762.19;5024921;28;20045;-75
2024/01/02 02:10:52;;;;;;;1.13;0.47;;;;;;;-4.79;74.15;101754.41;5020807;28;20141;-75
2024/01/02 02:13:20;;;;;;;1.10;0.47;;;;;;;-4.79;74.18;101763.75;5024878;28;20080;-75
2024/01/02 02:15:48;;;;;;;0.77;0.50;;;;;;;-4.82;74.22;101753.38;5020638;28;20575;-75
2024/01/02 02:18:17;;;;;;;0.90;0.38;;;;;;;-4.82;73.94;101755.94;5021598;28;20050;-75
2024/01/02 02:20:44;;;;;;;3.15;0.50;;;;;;;-4.83;73.92;101754.19;5020839;28;20111;-76
2024/01/02 02:23:12;;;;;;;1.13;0.30;;;;;;;-4.83;74.39;101743.97;5024021;28;20077;-85
2024/01/02 02:25:39;;;;;;;0.50;0.30;;;;;;;-4.84;74.14;101753.31;5030088;28;20488;-84
2024/01/02 02:28:06;;;;;;;1.10;0.55;;;;;;;-4.88;73.24;101746.25;5023304;28;20128;-83
2024/01/02 02:30:34;;;;;;;1.20;0.50;;;;;;;-4.87;73.47;101759.13;5031068;28;20415;-84
2024/01/02 02:33:01;;;;;;;4.57;0.45;;;;;;;-4.88;73.72;101757.34;5024761;28;20071;-84
2024/01/02 02:35:28;;;;;;;3.25;0.40;;;;;;;-4.88;74.14;101757.34;5022482;28;20666;-84
2024/01/02 02:37:55;;;;;;;4.15;0.68;;;;;;;-4.88;73.94;101754.78;5027033;28;20231;-84
2024/01/02 02:40:23;;;;;;;4.25;0.60;;;;;;;-4.90;74.38;101742.72;5029430;28;20053;-83
2024/01/02 02:42:50;;;;;;;6.03;0.70;;;;;;;-4.91;74.70;101746.97;5025260;28;20084;-77
2024/01/02 02:45:17;;;;;;;1.90;0.73;;;;;;;-4.93;74.11;101748.56;5025588;28;20149;-78
2024/01/02 02:47:44;;;;;;;1.52;0.85;;;;;;;-4.91;73.85;101751.19;5026270;28;20073;-78
2024/01/02 02:50:11;;;;;;;1.00;0.60;;;;;;;-4.91;74.28;101744.41;5024593;28;20483;-78
2024/01/02 02:52:38;;;;;;;3.13;0.98;;;;;;;-4.91;74.29;101741.84;5018454;28;20045;-77
2024/01/02 02:55:06;;;;;;;1.98;0.40;;;;;;;-4.92;74.42;101745.22;5025469;28;20041;-78
2024/01/02 02:57:34;;;;;;;0.85;0.40;;;;;;;-4.91;74.93;101746.97;5021021;28;20512;-79
2024/01/02 03:00:03;;;;;;;0.77;0.47;;;;;;;-4.91;75.02;101736.75;5028910;28;20092;-78
2024/01/02 03:02:30;;;;;;;0.70;0.30;;;;;;;-4.94;74.42;101723.81;5026161;28;20049;-77
2024/01/02 03:04:57;;;;;;;1.90;0.70;;;;;;;-4.92;74.66;101734.13;5021226;28;20132;-77
2024/01/02 03:07:25;;;;;;;1.35;0.40;;;;;;;-4.94;74.45;101730.59;5028315;28;20473;-78
2024/01/02 03:09:52;;;;;;;1.98;0.55;;;;;;;-4.94;74.54;101740.81;5029078;28;20069;-77
2024/01/02 03:12:19;;;;;;;0.90;0.47;;;;;;;-4.95;74.08;101732.28;5025409;28;20077;-78
2024/01/02 03:14:47;;;;;;;1.25;0.47;;;;;;;-4.94;74.80;101730.59;5027669;28;20104;-77
2024/01/02 03:17:14;;;;;;;1.90;0.50;;;;;;;-4.93;74.72;101737.47;5022571;28;20042;-77
2024/01/02 03:19:41;;;;;;;1.55;0.50;;;;;;;-4.95;74.78;101732.28;5030133;28;20071;-77
2024/01/02 03:22:08;;;;;;;1.13;0.57;;;;;;;-4.96;75.31;101730.50;5029795;28;20091;-78
2024/01/02 03:24:35;;;;;;;2.17;0.70;;;;;;;-4.95;75.87;101724.63;5028275;28;20146;-78
2024/01/02 03:27:02;;;;;;;1.02;0.40;;;;;;;-4.95;76.32;101718.66;5026737;28;20045;-78
2024/01/02 03:29:29;;;;;;;4.43;0.63;;;;;;;-4.94;76.26;101713.63;5027402;28;20053;-77
2024/01/02 03:31:58;;;;;;;1.52;0.77;;;;;;;-4.91;76.71;101718.00;5027891;28;20479;-77
2024/01/02 03:34:25;;;;;;;3.15;0.60;;;;;;;-4.89;76.95;101719.84;5026873;28;20045;-77
2024/01/02 03:36:52;;;;;;;6.82;0.80;;;;;;;-4.89;76.80;101724.97;5030091;28;20136;-77
2024/01/02 03:39:18;;;;;;;1.58;0.75;;;;;;;-4.89;77.15;101727.50;5026745;28;20183;-77
2024/01/02 03:41:45;;;;;;;1.38;0.52;;;;;;;-4.88;77.33;101716.50;5028433;28;20480;-77
2024/01/02 03:44:12;;;;;;;2.78;0.52;;;;;;;-4.86;76.85;101716.59;5024780;28;20049;-76
2024/01/02 03:46:39;;;;;;;1.45;1.23;;;;;;;-4.86;76.98;101720.03;5029387;28;20097;-77
2024/01/02 03:49:08;;;;;;;1.05;0.40;;;;;;;-4.82;77.09;101726.16;5025833;28;20069;-77
2024/01/02 03:51:35;;;;;;;1.02;0.60;;;;;;;-4.83;76.83;101724.44;5026507;28;20041;-77
2024/01/02 03:54:02;;;;;;;2.28;0.40;;;;;;;-4.82;76.73;101717.63;5029418;28;20076;-75
2024/01/02 03:56:29;;;;;;;0.85;0.30;;;;;;;-4.86;75.96;101704.72;5029691;28;20129;-76
2024/01/02 03:58:56;;;;;;;1.95;0.30;;;;;;;-4.82;76.25;101707.44;5025737;28;20071;-77
2024/01/02 04:01:22;;;;;;;1.48;0.40;;;;;;;-4.83;76.08;101713.34;5027014;28;20065;-76
2024/01/02 04:03:49;;;;;;;0.22;0.20;;;;;;;-4.84;75.39;101712.47;5025234;28;20124;-76
2024/01/02 04:06:18;;;;;;;4.97;2.80;;;;;;;-4.85;74.94;101703.91;5030599;28;20088;-77
2024/01/02 04:08:45;;;;;;;1.35;0.30;;;;;;;-4.86;74.81;101711.50;5027354;28;20168;-77
2024/01/02 04:11:13;;;;;;;0.70;0.25;;;;;;;-4.88;74.93;101721.59;5030739;28;20590;-77
2024/01/02 04:13:40;;;;;;;4.38;0.80;;;;;;;-4.87;74.67;101722.47;5026930;28;20037;-77
2024/01/02 04:16:07;;;;;;;2.17;0.57;;;;;;;-4.93;74.96;101706.84;5026961;28;20073;-75
2024/01/02 04:18:34;;;;;;;0.85;0.45;;;;;;;-4.90;74.95;101712.09;5028446;28;20068;-77
2024/01/02 04:21:01;;;;;;;0.75;0.20;;;;;;;-4.89;75.21;101722.41;5030490;28;20069;-77
2024/01/02 04:23:29;;;;;;;2.83;0.30;;;;;;;-4.88;75.62;101724.16;5026969;28;20507;-77
2024/01/02 04:25:56;;;;;;;0.73;0.30;;;;;;;-4.88;75.62;101718.19;5028374;28;20084;-77
2024/01/02 04:28:23;;;;;;;0.60;0.30;;;;;;;-4.89;75.77;101714.75;5023446;28;20069;-77
2024/01/02 04:30:50;;;;;;;1.48;0.38;;;;;;;-4.88;76.55;101713.94;5028977;28;20546;-77
2024/01/02 04:33:17;;;;;;;1.33;0.38;;;;;;;-4.87;76.98;101713.19;5024980;28;20096;-78
2024/01/02 04:35:44;;;;;;;1.60;0.40;;;;;;;-4.87;77.28;101715.72;5027233;28;20482;-77
2024/01/02 04:38:11;;;;;;;1.08;0.40;;;;;;;-4.82;77.25;101712.53;5028518;28;20084;-77
2024/01/02 04:40:39;;;;;;;1.33;0.65;;;;;;;-4.80;77.26;101705.84;5027016;28;20080;-77
2024/01/02 04:43:06;;;;;;;2.70;0.30;;;;;;;-4.78;77.07;101702.59;5024845;28;20129;-77
2024/01/02 04:45:33;;;;;;;1.95;0.22;;;;;;;-4.76;76.45;101689.88;5029342;28;20108;-77
2024/01/02 04:48:00;;;;;;;2.00;0.50;;;;;;;-4.76;76.07;101697.53;5029018;28;20042;-77
2024/01/02 04:50:27;;;;;;;4.40;0.30;;;;;;;-4.78;76.23;101696.59;5027124;28;20127;-77
2024/01/02 04:52:54;;;;;;;1.13;0.82;;;;;;;-4.76;76.06;101710.31;5029072;28;20076;-77
2024/01/02 04:55:21;;;;;;;0.90;0.20;;;;;;;-4.76;76.29;101700.09;5026211;28;20129;-77
2024/01/02 04:57:49;;;;;;;1.38;0.20;;;;;;;-4.74;76.06;101708.72;5027934;28;20084;-77
2024/01/02 05:00:16;;;;;;;1.40;0.20;;;;;;;-4.73;75.21;101710.47;5026440;28;20084;-77
2024/01/02 05:02:43;;;;;;;0.50;0.20;;;;;;;-4.73;74.94;101705.38;5023551;28;20120;-72
2024/01/02 05:05:10;;;;;;;0.90;0.30;;;;;;;-4.75;73.94;101706.97;5025394;28;20573;-73
2024/01/02 05:07:37;;;;;;;0.20;0.20;;;;;;;-4.73;74.48;101716.47;5026306;28;20135;-73
2024/01/02 05:10:05;;;;;;;3.03;0.20;;;;;;;-4.70;74.17;101715.75;5022888;28;20464;-73
2024/01/02 05:12:31;;;;;;;0.30;0.20;;;;;;;-4.70;74.28;101736.16;5024859;28;20124;-73
2024/01/02 05:15:00;;;;;;;3.50;1.33;;;;;;;-4.71;73.66;101719.09;5022300;28;20077;-69
2024/01/02 05:17:27;;;;;;;1.80;0.25;;;;;;;-4.71;73.50;101726.75;5021028;28;20162;-72
2024/01/02 05:19:54;;;;;;;0.40;0.32;;;;;;;-4.73;73.56;101726.69;5023823;28;20611;-73
2024/01/02 05:22:20;;;;;;;0.50;0.20;;;;;;;-4.73;73.01;101720.69;5025188;28;20129;-74
2024/01/02 05:24:47;;;;;;;3.22;0.20;;;;;;;-4.76;73.15;101726.50;5018001;28;20136;-73
2024/01/02 05:27:15;;;;;;;4.70;0.63;;;;;;;-4.86;72.78;101717.47;5022626;28;20463;-73
2024/01/02 05:29:43;;;;;;;1.38;0.20;;;;;;;-4.82;72.89;101720.19;4993467;28;20057;-73
2024/01/02 05:32:11;;;;;;;3.17;0.38;;;;;;;-4.84;73.34;101727.78;5038737;28;20152;-73
2024/01/02 05:34:38;;;;;;;1.08;0.20;;;;;;;-4.86;73.17;101725.13;5041136;28;20124;-73
2024/01/02 05:37:05;;;;;;;6.32;0.30;;;;;;;-4.87;73.36;101727.59;5039039;28;20487;-74
2024/01/02 05:39:32;;;;;;;0.90;0.20;;;;;;;-4.87;74.07;101731.03;5040997;28;20085;-73
2024/01/02 05:41:59;;;;;;;0.60;0.20;;;;;;;-4.88;74.53;101729.25;5036541;28;20464;-73
2024/01/02 05:44:26;;;;;;;1.95;0.20;;;;;;;-4.87;74.24;101722.47;5041686;28;20136;-74
2024/01/02 05:46:53;;;;;;;0.30;0.20;;;;;;;-4.85;74.20;101720.91;5038704;28;20153;-73
2024/01/02 05:49:21;;;;;;;1.25;0.10;;;;;;;-4.85;73.86;101719.22;5040419;28;20239;-73
2024/01/02 05:51:48;;;;;;;3.55;0.30;;;;;;;-4.85;73.69;101719.22;5039033;28;20653;-77
2024/01/02 05:54:15;;;;;;;0.80;0.20;;;;;;;-4.82;73.70;101721.06;5044422;28;20076;-78
2024/01/02 05:56:42;;;;;;;0.40;0.30;;;;;;;-4.83;73.62;101714.22;5042875;28;20465;-76
2024/01/02 05:59:09;;;;;;;0.28;0.10;;;;;;;-4.82;73.26;101710.84;5042221;28;20088;-73
2024/01/02 06:01:36;;;;;;;1.70;0.17;;;;;;;-4.82;73.72;101717.63;5038878;28;20745;-74
2024/01/02 06:04:03;;;;;;;1.10;0.77;;;;;;;-4.83;73.21;101713.34;5039315;28;20145;-74
2024/01/02 06:06:31;;;;;;;2.08;0.30;;;;;;;-4.83;72.63;101709.09;5043547;28;20084;-76
2024/01/02 06:08:58;;;;;;;0.40;0.30;;;;;;;-4.83;73.05;101713.34;5036627;28;20593;-75
2024/01/02 06:11:25;;;;;;;1.95;0.30;;;;;;;-4.83;72.81;101709.09;5036231;28;20139;-85
2024/01/02 06:13:52;;;;;;;1.75;0.20;;;;;;;-4.82;72.69;101707.44;5045706;28;20084;-86
2024/01/02 06:16:20;;;;;;;0.38;0.20;;;;;;;-4.82;72.08;101704.88;5048192;28;20137;-85
2024/01/02 06:18:47;;;;;;;1.23;0.20;;;;;;;-4.83;72.04;101713.34;5041420;28;20064;-85
2024/01/02 06:21:14;;;;;;;0.43;0.20;;;;;;;-4.86;71.08;101712.38;5043562;28;20456;-86
2024/01/02 06:23:43;;;;;;;1.00;0.30;;;;;;;-4.87;70.87;101728.50;5044317;28;20080;-85
2024/01/02 06:26:10;;;;;;;2.47;0.20;;;;;;;-4.88;70.71;101730.94;5045744;28;20135;-85
2024/01/02 06:28:37;;;;;;;0.80;0.20;;;;;;;-4.89;70.53;101729.19;5046009;28;20979;-86
2024/01/02 06:31:05;;;;;;;0.50;0.20;;;;;;;-4.94;70.22;101739.13;5046494;28;20124;-85
2024/01/02 06:33:32;;;;;;;1.80;0.30;;;;;;;-4.96;70.87;101742.41;5047146;28;20045;-86
2024/01/02 06:35:59;;;;;;;1.52;0.10;;;;;;;-4.98;71.04;101736.34;5052630;28;20076;-86
2024/01/02 06:38:26;;;;;;;2.05;0.20;;;;;;;-4.99;71.02;101732.03;5051762;28;20497;-86
2024/01/02 06:40:55;;;;;;;0.63;0.20;;;;;;;-5.01;70.96;101737.06;5047379;28;20056;-86
2024/01/02 06:43:22;;;;;;;0.47;0.20;;;;;;;-5.00;71.34;101746.47;5046900;28;20072;-85
2024/01/02 06:45:49;;;;;;;0.47;0.30;;;;;;;-5.05;71.56;101727.44;5051496;28;20507;-85
2024/01/02 06:48:16;;;;;;;2.35;0.30;;;;;;;-5.06;71.87;101735.91;5049712;28;20799;-85
2024/01/02 06:50:43;;;;;;;0.30;0.20;;;;;;;-5.07;71.63;101735.03;5049884;28;20124;-85
2024/01/02 06:53:10;;;;;;;0.20;0.20;;;;;;;-5.15;71.96;101722.66;5047982;28;20120;-85
2024/01/02 06:55:37;;;;;;;0.50;0.25;;;;;;;-5.05;71.91;101745.31;5051061;28;20152;-86
2024/01/02 06:58:06;;;;;;;2.05;0.30;;;;;;;-5.05;72.20;101742.75;5049888;28;20045;-83
2024/01/02 07:00:33;;;;;;;0.68;0.30;;;;;;;-5.03;72.51;101730.97;5046437;28;20044;-83
2024/01/02 07:03:00;;;;;;;1.83;0.30;;;;;;;-5.03;72.10;101730.97;5046713;28;20044;-78
2024/01/02 07:05:28;;;;;;;0.88;0.20;;;;;;;-5.00;71.77;101731.16;5048329;28;20079;-82
2024/01/02 07:07:55;;;;;;;2.08;0.38;;;;;;;-5.01;71.86;101739.59;5048270;28;20051;-84
2024/01/02 07:10:24;;;;;;;1.50;0.43;;;;;;;-5.04;71.33;101729.22;5046956;28;20509;-80
2024/01/02 07:12:51;;;;;;;1.55;0.30;;;;;;;-5.07;70.75;101727.38;5049189;28;20055;-78
2024/01/02 07:15:20;;;;;;;1.00;0.40;;;;;;;-5.11;70.31;101737.31;5049487;28;20084;-78
2024/01/02 07:17:48;;;;;;;1.10;0.40;;;;;;;-5.15;70.20;101731.16;5047372;28;20076;-77
2024/01/02 07:20:15;;;;;;;1.75;0.50;;;;;;;-5.19;70.40;101734.31;5043841;28;20551;-77
2024/01/02 07:22:42;;;;;;;0.52;0.38;;;;;;;-5.20;69.95;101747.00;5045364;28;20127;-78
2024/01/02 07:25:10;;;;;;;1.80;0.30;;;;;;;-5.22;69.68;101739.25;5046358;28;20081;-75
2024/01/02 07:27:37;;;;;;;0.70;0.30;;;;;;;-5.23;70.08;101746.84;5045749;28;20041;-78
2024/01/02 07:30:05;;;;;;;1.23;0.40;;;;;;;-5.23;70.33;101740.06;5045021;28;20160;-76
2024/01/02 07:32:34;;;;;;;2.75;0.40;;;;;;;-5.21;70.30;101748.69;5044224;28;20048;-73
2024/01/02 07:35:01;;;;;;;1.02;0.30;;;;;;;-5.20;70.43;101752.13;5042643;28;20529;-75
2024/01/02 07:37:28;;;;;;;1.20;0.40;;;;;;;-5.20;70.93;101747.00;5042980;28;20128;-75
2024/01/02 07:39:55;;;;;;;4.22;0.40;;;;;;;-5.19;70.82;101748.75;5042014;28;20087;-75
2024/01/02 07:42:22;;;;;;;0.30;0.15;;;;;;;-5.21;71.08;101735.94;5036775;28;20592;-77
2024/01/02 07:44:49;;;;;;;0.70;0.38;;;;;;;-5.22;71.16;101739.25;5043830;28;20049;-75
2024/01/02 07:47:16;;;;;;;1.27;0.32;;;;;;;-5.23;71.48;101736.63;5041369;28;20175;-75
2024/01/02 07:49:45;;;;;;;0.40;0.20;;;;;;;-5.26;71.62;101729.69;5042103;28;20069;-75
2024/01/02 07:52:12;;;;;;;2.17;0.40;;;;;;;-5.28;71.77;101738.03;5040503;28;20072;-73
2024/01/02 07:54:39;;;;;;;0.60;0.38;;;;;;;-5.30;72.00;101741.41;5042227;28;20167;-75
2024/01/02 07:57:07;;;;;;;1.13;0.50;;;;;;;-5.32;72.18;101748.06;5039861;28;20808;-75
2024/01/02 07:59:34;;;;;;;3.33;0.65;;;;;;;-5.33;72.38;101745.41;5044554;28;20077;-77
2024/01/02 08:02:01;;;;;;;2.13;0.63;;;;;;;-5.36;72.61;101741.03;5042181;28;20073;-75
2024/01/02 08:04:29;;;;;;;2.08;0.60;;;;;;;-5.36;73.03;101737.59;5044561;28;20664;-76
2024/01/02 08:06:59;;;;;;;1.75;0.60;;;;;;;-5.36;72.96;101737.59;5042751;28;20047;-75
2024/01/02 08:09:27;;;;;;;4.47;0.68;;;;;;;-5.36;73.34;101738.47;5039620;28;20156;-75
2024/01/02 08:11:54;;;;;;;1.65;0.40;;;;;;;-5.35;72.63;101736.81;5042960;28;20466;-73
2024/01/02 08:14:21;;;;;;;5.00;0.80;;;;;;;-5.38;73.00;101750.28;5041235;28;20131;-73
2024/01/02 08:16:48;;;;;;;1.63;0.63;;;;;;;-5.34;72.84;101736.03;5037408;28;20053;-73
2024/01/02 08:19:15;;;;;;;1.42;0.50;;;;;;;-5.36;72.75;101738.47;5039852;28;20485;-73
2024/01/02 08:21:42;;;;;;;1.60;0.47;;;;;;;-5.35;72.90;101747.03;5039380;28;20470;-73
2024/01/02 08:24:10;;;;;;;2.20;0.60;;;;;;;-5.37;71.97;101746.91;5036104;28;20136;-73
2024/01/02 08:26:37;;;;;;;3.42;0.70;;;;;;;-5.39;72.50;101745.94;5038817;28;20562;-75
2024/01/02 08:29:04;;;;;;;1.40;1.33;;;;;;;-5.40;72.95;101749.28;5037616;28;20124;-73
2024/01/02 08:31:31;;;;;;;4.35;0.60;;;;;;;-5.39;73.18;101750.16;5042307;28;20394;-79
2024/01/02 08:33:58;;;;;;;3.03;1.30;;;;;;;-5.37;72.78;101756.25;5040127;28;20091;-75
2024/01/02 08:36:25;;;;;;;3.65;0.65;;;;;;;-5.38;72.88;101749.41;5040098;28;20669;-76
2024/01/02 08:38:52;;;;;;;1.33;0.70;;;;;;;-5.38;72.84;101752.81;5040779;28;20041;-75
2024/01/02 08:41:20;;;;;;;3.35;0.40;;;;;;;-5.39;72.70;101751.03;5040659;28;20073;-76
2024/01/02 08:43:47;;;;;;;1.20;0.50;;;;;;;-5.37;72.93;101758.81;5042586;28;20488;-75
2024/01/02 08:46:14;;;;;;;2.78;1.30;;;;;;;-5.37;72.62;101754.56;5039709;28;20041;-75
2024/01/02 08:48:42;;;;;;;1.15;0.68;;;;;;;-5.37;72.67;101746.91;5040917;28;20581;-74
2024/01/02 08:51:09;;;;;;;2.03;0.65;;;;;;;-5.37;72.43;101752.03;5040889;28;20558;-75
2024/01/02 08:53:36;;;;;;;1.90;1.30;;;;;;;-5.37;72.33;101759.69;5026661;28;20087;-74
2024/01/02 08:56:03;;;;;;;2.13;0.57;;;;;;;-5.40;72.87;101749.28;5034960;28;20102;-74
2024/01/02 08:58:31;;;;;;;4.43;0.98;;;;;;;-5.39;72.70;101756.16;5038485;28;20169;-75
2024/01/02 09:00:58;;;;;;;2.95;0.57;;;;;;;-5.40;72.58;101754.41;5042085;28;20438;-74
2024/01/02 09:03:27;;;;;;;2.92;0.50;;;;;;;-5.39;72.27;101761.25;5041530;28;20132;-75
2024/01/02 09:05:54;;;;;;;3.00;0.70;;;;;;;-5.41;72.05;101760.31;5039586;28;20049;-74
2024/01/02 09:08:21;;;;;;;6.50;0.70;;;;;;;-5.40;72.14;101764.59;5038477;28;20068;-71
2024/01/02 09:10:48;;;;;;;1.42;0.65;;;;;;;-5.41;72.37;101767.06;5032366;28;20136;-74
2024/01/02 09:13:15;;;;;;;1.35;0.57;;;;;;;-5.41;72.37;101760.31;5035570;28;20049;-75
2024/01/02 09:15:44;;;;;;;2.03;0.77;;;;;;;-5.41;72.50;101773.06;5034749;28;20069;-75
2024/01/02 09:18:11;;;;;;;1.85;0.70;;;;;;;-5.41;72.77;101767.06;5040903;28;20482;-74
2024/01/02 09:20:37;;;;;;;1.35;0.65;;;;;;;-5.44;72.80;101765.22;5040308;28;20587;-74
2024/01/02 09:23:04;;;;;;;1.50;0.73;;;;;;;-5.42;73.08;101768.72;5037599;28;20351;-75
2024/01/02 09:25:32;;;;;;;6.05;0.90;;;;;;;-5.40;73.37;101758.63;5036931;28;20144;-74
2024/01/02 09:28:01;;;;;;;1.73;0.70;;;;;;;-5.41;73.10;101757.75;5035059;28;20156;-73
2024/01/02 09:30:29;;;;;;;2.40;0.75;;;;;;;-5.40;73.29;101762.06;5036101;28;20128;-74
2024/01/02 09:32:58;;;;;;;3.40;0.80;;;;;;;-5.37;73.15;101769.88;5039453;28;20084;-75
2024/01/02 09:35:25;;;;;;;2.58;0.60;;;;;;;-5.38;73.76;101767.25;5039554;28;20053;-74
2024/01/02 09:37:52;;;;;;;1.38;0.75;;;;;;;-5.37;73.33;101764.78;5039657;28;20072;-74
2024/01/02 09:40:38;;;;;;;2.25;0.70;;;;;;;-5.39;73.18;101762.94;5040995;28;20393;-74
2024/01/02 09:43:12;;;;;;;2.08;1.00;;;;;;;-5.40;73.20;101762.06;5042705;28;20295;-78
2024/01/02 09:45:53;;;;;;;2.78;0.60;;;;;;;-5.40;72.65;101758.63;5043504;28;20053;-77
2024/01/02 09:48:38;;;;;;;2.85;0.50;;;;;;;-5.42;73.07;101758.53;5041270;28;20132;-77
2024/01/02 09:51:13;;;;;;;1.25;0.57;;;;;;;-5.42;73.08;101755.97;5035791;28;20483;-76
2024/01/02 09:54:05;;;;;;;1.20;0.82;;;;;;;-5.41;73.70;101749.19;5042108;28;20554;-73
2024/01/02 09:56:43;;;;;;;1.30;0.63;;;;;;;-5.44;73.66;101747.38;5041253;28;20049;-75
2024/01/02 09:59:24;;;;;;;2.35;0.70;;;;;;;-5.42;73.59;101745.78;5039224;28;20044;-74
2024/01/02 10:02:12;;;;;;;3.80;1.52;;;;;;;-5.42;73.74;101755.97;5039773;28;20507;-75
2024/01/02 10:05:03;;;;;;;1.67;0.50;;;;;;;-5.45;73.75;101750.69;5041281;28;20098;-75
2024/01/02 10:08:02;;;;;;;1.55;0.70;;;;;;;-5.44;73.38;101746.47;5041039;28;20060;-75
2024/01/02 10:10:35;;;;;;;1.38;0.60;;;;;;;-5.45;73.48;101753.25;5042678;28;20432;-73
2024/01/02 10:13:23;;;;;;;0.95;0.47;;;;;;;-5.44;73.25;101744.81;5046822;28;20107;-75
2024/01/02 10:15:56;;;;;;;3.63;0.50;;;;;;;-5.43;72.96;101741.47;5043548;28;20045;-74
2024/01/02 10:18:35;;;;;;;5.07;1.52;;;;;;;-5.44;72.89;101733.72;5039975;28;20053;-75
2024/01/02 10:21:13;;;;;;;1.80;0.65;;;;;;;-5.42;72.92;101740.66;5045419;28;20503;-74
2024/01/02 10:23:49;;;;;;;0.88;0.40;;;;;;;-5.41;72.94;101723.69;5044994;28;20084;-75
2024/01/02 10:26:20;;;;;;;1.23;0.70;;;;;;;-5.40;72.43;101728.91;5043633;28;20106;-72
2024/01/02 10:28:50;;;;;;;2.83;1.10;;;;;;;-5.39;72.35;101729.78;5042406;28;20049;-75
2024/01/02 10:31:25;;;;;;;0.35;0.30;;;;;;;-5.40;72.52;101728.91;5045086;28;20144;-74
2024/01/02 10:34:03;;;;;;;1.58;0.30;;;;;;;-5.38;72.21;101729.00;5041385;28;20044;-75
2024/01/02 10:36:41;;;;;;;2.33;0.40;;;;;;;-5.36;72.28;101733.38;5039009;28;20589;-73
2024/01/02 10:39:27;;;;;;;2.63;0.40;;;;;;;-5.35;72.13;101732.59;5042744;28;20056;-73
2024/01/02 10:41:57;;;;;;;;;;;;;;;-5.36;72.16;101720.63;5044347;28;20056;-71
2024/01/02 10:44:35;;;;;;;1.90;0.90;;;;;;;-5.37;72.17;101713.75;5043742;28;19955;-71
2024/01/02 10:47:10;;;;;;;0.90;0.20;;;;;;;-5.38;72.35;101722.22;5044186;28;20136;-71
2024/01/02 10:49:41;;;;;;;3.40;0.82;;;;;;;-5.37;72.38;101723.09;5041408;28;20131;-71
2024/01/02 10:52:18;;;;;;;1.02;0.77;;;;;;;-5.40;72.60;101718.69;5033350;28;20380;-71
2024/01/02 10:54:54;;;;;;;1.25;0.68;;;;;;;-5.38;72.88;101714.56;5035100;28;20051;-71
2024/01/02 10:57:31;;;;;;;4.43;0.93;;;;;;;-5.37;73.33;101718.88;5042287;28;20072;-71
2024/01/02 11:00:07;;;;;;;0.88;0.35;;;;;;;-5.36;73.49;101712.09;5043689;28;20048;-71
2024/01/02 11:02:51;;;;;;;4.65;0.50;;;;;;;-5.34;73.40;101708.84;5046990;28;20056;-80
2024/01/02 11:05:24;;;;;;;6.82;0.57;;;;;;;-5.31;73.64;101706.47;5052764;28;20045;-81
2024/01/02 11:08:01;;;;;;;2.90;0.73;;;;;;;-5.29;73.79;101706.56;5049362;28;20487;-80
2024/01/02 11:10:33;;;;;;;3.17;0.40;;;;;;;-5.32;73.18;101704.72;5048988;28;20049;-80
2024/01/02 11:13:03;;;;;;;1.80;0.40;;;;;;;-5.31;72.93;101703.03;5051126;28;20068;-80
2024/01/02 11:15:35;;;;;;;1.08;0.40;;;;;;;-5.32;72.87;101696.19;5051665;28;20045;-80
2024/01/02 11:18:04;;;;;;;1.27;0.65;;;;;;;-5.28;72.73;101702.34;5052180;28;20047;-81
2024/01/02 11:20:37;;;;;;;1.05;0.93;;;;;;;-5.31;72.36;101696.25;5050815;28;20055;-79
2024/01/02 11:23:11;;;;;;;2.78;0.68;;;;;;;-5.34;72.81;101708.84;5051316;28;20041;-81
2024/01/02 11:25:51;;;;;;;3.03;0.80;;;;;;;-5.33;72.98;101697.81;5049712;28;20456;-81
2024/01/02 11:28:22;;;;;;;2.78;0.82;;;;;;;-5.32;73.10;101694.50;5043388;28;20136;-82
2024/01/02 11:30:51;;;;;;;0.82;0.45;;;;;;;-5.30;73.15;101705.69;5045184;28;20123;-81